Time;durP1;ratioP1;P1;durP2;ratioP2;P2;SDS_P1;SDS_P2;PMS_P1;PMS_P2;Temp;Humidity;BMP_temperature;BMP_pressure;BME280_temperature;BME280_humidity;BME280_pressure;Samples;Min_cycle;Max_cycle;Signal;HPM_P1;HPM_P2
2022/11/11 00:01:07;;;;;;;9.35;3.35;;;;;;;8.82;69.02;101657.50;10154681;29;20044;-77
2022/11/11 00:06:30;;;;;;;8.25;2.50;;;;;;;8.72;69.23;101659.81;10153487;29;20088;-77
2022/11/11 00:11:51;;;;;;;8.95;2.63;;;;;;;8.66;69.32;101654.75;10156226;29;20088;-77
2022/11/11 00:28:32;;;;;;;9.90;2.50;;;;;;;8.71;68.55;101652.72;10156334;29;20514;-76
2022/11/11 00:33:53;;;;;;;4.60;2.15;;;;;;;8.72;68.39;101654.47;10152500;29;20064;-78
2022/11/11 00:39:16;;;;;;;6.20;2.60;;;;;;;8.59;68.63;101653.38;10151155;29;20127;-76
2022/11/11 00:44:37;;;;;;;6.53;2.50;;;;;;;8.56;68.78;101638.31;10153170;29;20048;-76
2022/11/11 00:55:39;;;;;;;5.88;2.70;;;;;;;8.51;68.73;101661.81;10149266;29;20057;-77
2022/11/11 01:01:01;;;;;;;7.28;2.42;;;;;;;8.46;68.54;101668.34;10155567;29;20044;-77
2022/11/11 01:06:22;;;;;;;5.45;2.13;;;;;;;8.61;68.09;101667.53;10157334;29;20510;-77
2022/11/11 01:11:44;;;;;;;5.05;2.50;;;;;;;8.60;68.03;101658.63;10158167;29;20048;-77
2022/11/11 01:17:06;;;;;;;6.78;2.05;;;;;;;8.53;68.03;101667.06;10152921;29;20060;-77
2022/11/11 01:22:28;;;;;;;5.05;2.13;;;;;;;8.64;67.73;101669.19;10170605;29;20053;-77
2022/11/11 01:27:51;;;;;;;6.50;2.53;;;;;;;8.66;67.01;101680.69;10160372;29;20052;-77
2022/11/11 01:33:12;;;;;;;4.05;2.20;;;;;;;8.80;66.64;101683.50;10158956;29;20268;-77
2022/11/11 01:38:33;;;;;;;4.95;2.30;;;;;;;8.71;66.95;101684.00;10157565;29;20056;-77
2022/11/11 01:43:56;;;;;;;6.30;3.00;;;;;;;8.74;66.79;101691.88;10164539;29;20056;-77
2022/11/11 01:49:28;;;;;;;6.45;2.38;;;;;;;8.73;66.82;101695.50;10150892;29;20124;-76
2022/11/11 01:54:54;;;;;;;4.80;2.13;;;;;;;8.88;66.24;101696.50;10148160;29;20048;-77
2022/11/11 02:00:19;;;;;;;3.70;2.20;;;;;;;8.75;66.66;101675.72;10159755;29;20044;-77
2022/11/11 02:05:44;;;;;;;5.30;2.10;;;;;;;8.84;66.14;101674.38;10160440;29;20052;-77
2022/11/11 02:11:14;;;;;;;3.97;2.13;;;;;;;8.83;66.26;101673.50;10156411;29;20040;-77
2022/11/11 02:16:37;;;;;;;4.60;2.00;;;;;;;8.44;67.10;101671.06;10149458;29;20434;-76
2022/11/11 02:22:00;;;;;;;;;;;;;;;8.83;66.28;101677.97;10159017;29;20052;-77
2022/11/11 02:27:25;;;;;;;7.18;2.33;;;;;;;8.65;66.77;101678.97;10155573;29;19923;-76
2022/11/11 02:32:48;;;;;;;5.85;2.35;;;;;;;8.70;66.81;101671.56;10155535;29;20124;-77
2022/11/11 02:38:10;;;;;;;6.03;2.45;;;;;;;8.47;67.41;101691.50;10160257;29;20052;-77
2022/11/11 02:43:34;;;;;;;7.25;2.78;;;;;;;8.60;67.16;101690.78;10154730;29;20049;-77
2022/11/11 02:48:56;;;;;;;6.90;2.40;;;;;;;8.58;67.23;101691.81;10151794;29;20159;-77
2022/11/11 02:54:17;;;;;;;5.90;2.63;;;;;;;8.66;66.80;101680.69;10154397;29;20057;-78
2022/11/11 02:59:41;;;;;;;7.32;3.22;;;;;;;8.73;66.28;101687.47;10154835;29;20057;-77
2022/11/11 03:05:02;;;;;;;5.15;2.65;;;;;;;8.73;66.22;101703.53;10160087;29;20522;-77
2022/11/11 03:10:24;;;;;;;5.10;2.30;;;;;;;8.54;66.59;101699.13;10151113;29;20490;-78
2022/11/11 03:15:46;;;;;;;5.53;2.30;;;;;;;8.63;66.56;101676.34;10157984;29;20056;-76
2022/11/11 03:21:08;;;;;;;8.48;2.25;;;;;;;8.65;66.22;101684.31;10153045;29;20123;-78
2022/11/11 03:26:49;;;;;;;4.22;2.45;;;;;;;8.65;66.23;101695.91;10154075;29;20139;-77
2022/11/11 03:32:12;;;;;;;7.88;2.67;;;;;;;8.78;65.58;101697.00;10156157;29;20048;-77
2022/11/11 03:43:29;;;;;;;5.88;2.20;;;;;;;8.68;65.88;101689.53;10052975;29;20046;-77
2022/11/11 03:48:52;;;;;;;3.70;1.90;;;;;;;8.59;66.10;101678.34;10153636;29;20055;-77
2022/11/11 03:54:13;;;;;;;8.10;2.33;;;;;;;8.77;65.46;101683.66;10155285;29;20053;-76
2022/11/11 03:59:34;;;;;;;3.22;1.90;;;;;;;8.89;65.26;101699.13;10153736;29;20055;-77
2022/11/11 04:10:36;;;;;;;5.13;1.83;;;;;;;8.97;64.80;101688.84;10185286;29;20052;-78
2022/11/11 04:16:07;;;;;;;6.13;2.40;;;;;;;8.88;65.26;101673.25;10162296;29;20048;-78
2022/11/11 04:21:44;;;;;;;5.55;2.33;;;;;;;8.93;65.05;101679.22;10156037;29;20435;-77
2022/11/11 04:27:07;;;;;;;6.10;2.00;;;;;;;8.95;64.87;101689.88;10151592;29;20056;-77
2022/11/11 04:32:42;;;;;;;4.43;2.00;;;;;;;8.76;65.29;101679.25;10159180;29;20056;-78
2022/11/11 04:49:22;;;;;;;4.45;1.88;;;;;;;9.03;64.36;101684.97;10150737;29;20052;-77
2022/11/11 05:00:20;;;;;;;6.65;1.45;;;;;;;8.90;64.79;101695.47;10152127;29;20155;-77
2022/11/11 05:11:25;;;;;;;8.27;2.35;;;;;;;9.01;64.56;101705.63;10155456;29;20052;-77
2022/11/11 05:22:31;;;;;;;3.72;2.00;;;;;;;8.71;65.87;101716.16;10152110;29;20471;-77
2022/11/11 05:27:54;;;;;;;4.28;2.00;;;;;;;8.71;65.29;101719.69;10149999;29;20092;-76
2022/11/11 05:33:15;;;;;;;3.45;2.00;;;;;;;8.66;65.80;101721.72;10146570;29;20531;-76
2022/11/11 05:38:36;;;;;;;3.35;1.77;;;;;;;8.55;66.04;101730.31;10157394;29;20060;-77
2022/11/11 05:43:59;;;;;;;4.82;1.85;;;;;;;8.63;65.75;101737.97;10153982;29;20048;-77
2022/11/11 05:49:20;;;;;;;2.72;1.55;;;;;;;8.79;65.27;101743.41;10154651;29;20135;-77
2022/11/11 05:54:42;;;;;;;3.30;1.67;;;;;;;8.56;65.69;101744.59;10158277;29;20049;-77
2022/11/11 06:00:06;;;;;;;5.25;2.15;;;;;;;8.61;65.79;101747.88;10153382;29;20052;-77
2022/11/11 06:05:27;;;;;;;4.57;2.20;;;;;;;8.69;65.37;101750.19;10163105;29;20060;-77
2022/11/11 06:10:50;;;;;;;6.90;2.35;;;;;;;8.68;65.32;101765.41;10171230;29;20052;-77
2022/11/11 06:16:12;;;;;;;5.05;1.83;;;;;;;8.74;65.02;101765.06;10161502;29;20053;-77
2022/11/11 06:21:55;;;;;;;4.72;2.08;;;;;;;8.77;64.91;101764.03;10165334;29;20441;-77
2022/11/11 06:27:15;;;;;;;6.72;1.67;;;;;;;8.73;64.82;101768.72;10158624;29;20048;-75
2022/11/11 06:32:38;;;;;;;6.05;1.73;;;;;;;8.66;64.89;101767.28;10173979;29;20057;-78
2022/11/11 06:37:59;;;;;;;3.67;1.80;;;;;;;8.55;65.63;101775.00;10177604;29;20135;-76
2022/11/11 06:43:20;;;;;;;5.95;1.85;;;;;;;8.89;64.18;101784.88;10202156;29;20061;-77
2022/11/11 06:48:43;;;;;;;3.20;1.70;;;;;;;8.87;64.20;101785.88;10175605;29;20052;-76
2022/11/11 06:54:04;;;;;;;5.38;1.98;;;;;;;8.79;64.45;101767.53;10154671;29;20414;-76
2022/11/11 06:59:26;;;;;;;5.95;1.52;;;;;;;8.92;63.75;101773.97;10149379;29;20060;-76
2022/11/11 07:04:49;;;;;;;3.38;1.50;;;;;;;8.81;64.39;101773.69;10149180;29;20052;-76
2022/11/11 07:10:10;;;;;;;5.10;2.03;;;;;;;8.84;63.85;101773.50;10160784;29;20255;-77
2022/11/11 07:15:33;;;;;;;4.00;1.52;;;;;;;8.72;64.36;101775.03;10154246;29;20490;-77
2022/11/11 07:20:55;;;;;;;6.10;1.65;;;;;;;9.05;63.47;101779.53;10160681;29;20048;-77
2022/11/11 07:26:17;;;;;;;3.72;1.73;;;;;;;9.08;63.21;101781.19;10144023;29;20045;-78
2022/11/11 07:31:38;;;;;;;7.35;1.50;;;;;;;9.01;63.44;101792.25;10157133;29;20056;-77
2022/11/11 07:37:01;;;;;;;2.75;1.58;;;;;;;8.97;63.63;101789.84;10151171;29;20518;-77
2022/11/11 07:42:22;;;;;;;2.13;1.30;;;;;;;9.08;63.50;101782.09;10144234;29;20060;-77
2022/11/11 07:47:52;;;;;;;3.22;1.50;;;;;;;9.21;63.18;101796.56;10156273;29;20044;-77
2022/11/11 07:53:15;;;;;;;3.88;1.60;;;;;;;9.26;62.41;101799.00;10155002;29;20127;-78
2022/11/11 07:58:36;;;;;;;4.43;1.65;;;;;;;9.59;61.99;101816.94;10166400;29;20080;-77
2022/11/11 08:03:57;;;;;;;1.73;1.17;;;;;;;9.37;62.04;101807.34;10140012;29;20060;-77
2022/11/11 08:09:20;;;;;;;4.85;1.27;;;;;;;9.54;61.56;101808.25;10128948;29;20056;-77
2022/11/11 08:14:41;;;;;;;;;;;;;;;9.56;61.55;101812.59;10129971;29;20152;-77
2022/11/11 08:20:02;;;;;;;3.17;1.33;;;;;;;9.59;61.04;101828.50;10132646;29;20455;-77
2022/11/11 08:25:25;;;;;;;2.85;1.10;;;;;;;9.86;60.54;101836.06;10131364;29;20915;-77
2022/11/11 08:30:48;;;;;;;3.70;1.88;;;;;;;10.03;60.52;101838.66;10128859;29;20044;-78
2022/11/11 08:36:10;;;;;;;3.75;1.83;;;;;;;9.78;60.74;101839.13;10125468;29;20051;-77
2022/11/11 08:41:38;;;;;;;5.65;1.25;;;;;;;9.88;60.19;101839.53;10128926;29;20079;-77
2022/11/11 08:46:59;;;;;;;3.00;1.38;;;;;;;10.03;60.36;101841.34;10128460;29;20048;-77
2022/11/11 08:52:20;;;;;;;2.53;1.27;;;;;;;9.98;60.11;101838.03;10130947;29;20044;-77
2022/11/11 08:57:43;;;;;;;2.55;1.55;;;;;;;10.26;59.54;101845.44;10126444;29;20064;-77
2022/11/11 09:03:07;;;;;;;3.17;1.27;;;;;;;10.11;59.54;101844.47;10104978;29;20060;-77
2022/11/11 09:08:29;;;;;;;5.38;1.30;;;;;;;10.19;59.29;101852.09;10121783;29;20056;-77
2022/11/11 09:13:52;;;;;;;4.72;1.30;;;;;;;10.26;59.19;101866.94;10109218;29;20049;-77
2022/11/11 09:19:13;;;;;;;3.25;1.10;;;;;;;10.49;58.61;101851.31;10131443;29;20052;-77
2022/11/11 09:24:34;;;;;;;5.93;1.42;;;;;;;10.33;58.15;101870.97;10131864;29;20044;-77
2022/11/11 09:29:57;;;;;;;3.10;1.63;;;;;;;10.53;57.80;101871.66;10129653;29;20057;-78
2022/11/11 09:35:19;;;;;;;2.67;0.95;;;;;;;10.42;57.95;101866.03;10121057;29;20096;-77
2022/11/11 09:40:52;;;;;;;1.97;1.10;;;;;;;10.76;57.10;101881.97;10119424;29;20044;-77
2022/11/11 09:46:25;;;;;;;3.13;1.30;;;;;;;11.05;56.33;101879.38;10133598;29;20398;-78
2022/11/11 09:51:52;;;;;;;2.20;1.15;;;;;;;11.19;55.64;101873.19;10104750;29;20193;-77
2022/11/11 09:57:18;;;;;;;3.97;1.38;;;;;;;11.63;54.81;101883.13;10124934;29;20587;-78
2022/11/11 10:02:46;;;;;;;4.75;0.82;;;;;;;11.79;54.07;101875.78;10145002;29;20135;-77
2022/11/11 10:08:15;;;;;;;3.38;1.23;;;;;;;12.30;52.77;101884.25;10123649;29;20127;-77
2022/11/11 10:13:37;;;;;;;4.18;1.10;;;;;;;12.39;52.64;101877.38;10125333;29;20636;-79
2022/11/11 10:19:14;;;;;;;7.03;1.40;;;;;;;12.66;51.89;101888.19;10122628;29;20187;-78
2022/11/11 10:24:40;;;;;;;3.70;1.00;;;;;;;12.47;52.60;101872.34;10123218;29;20048;-78
2022/11/11 10:30:19;;;;;;;1.60;1.00;;;;;;;13.08;51.41;101864.69;10125638;29;20052;-77
2022/11/11 10:35:43;;;;;;;2.53;1.20;;;;;;;13.76;49.56;101858.19;10116718;29;20052;-77
2022/11/11 10:41:14;;;;;;;2.83;0.50;;;;;;;13.78;48.49;101856.25;10134658;29;20182;-78
2022/11/11 10:46:42;;;;;;;4.35;1.30;;;;;;;14.88;47.35;101876.16;10127441;29;20370;-79
2022/11/11 10:52:11;;;;;;;2.15;1.00;;;;;;;15.60;45.87;101867.88;10130830;29;20057;-77
2022/11/11 10:57:38;;;;;;;3.65;1.15;;;;;;;14.64;47.21;101879.72;10128996;29;20053;-77
2022/11/11 11:03:11;;;;;;;3.60;1.15;;;;;;;14.56;47.36;101874.91;10124960;29;20052;-78
2022/11/11 11:08:40;;;;;;;3.15;0.98;;;;;;;14.91;47.54;101865.09;10125881;29;20501;-78
2022/11/11 11:14:06;;;;;;;2.50;1.10;;;;;;;15.56;46.40;101867.28;10131727;29;20048;-78
2022/11/11 11:19:28;;;;;;;1.45;1.00;;;;;;;14.70;48.63;101868.47;10135059;29;20405;-79
2022/11/11 11:24:51;;;;;;;5.68;1.25;;;;;;;14.90;47.77;101861.53;10129652;29;20048;-79
2022/11/11 11:30:16;;;;;;;2.80;1.48;;;;;;;15.18;47.08;101864.81;10133333;29;20537;-78
2022/11/11 11:35:39;;;;;;;2.15;1.13;;;;;;;15.43;46.81;101861.09;10122774;29;20466;-79
2022/11/11 11:41:01;;;;;;;;;;;;;;;15.16;47.86;101861.38;10119027;29;20060;-78
2022/11/11 11:46:29;;;;;;;1.80;1.17;;;;;;;14.49;48.91;101864.66;10119339;29;19927;-79
2022/11/11 11:52:03;;;;;;;2.60;1.40;;;;;;;14.91;48.66;101856.97;10124888;29;20081;-78
2022/11/11 11:57:42;;;;;;;4.55;1.67;;;;;;;15.99;46.56;101855.72;10137473;29;20079;-79
2022/11/11 12:03:29;;;;;;;1.80;1.13;;;;;;;17.19;44.05;101843.06;10116090;29;20040;-79
2022/11/11 12:09:06;;;;;;;2.83;1.10;;;;;;;16.42;46.02;101846.78;10117492;29;20048;-78
2022/11/11 12:14:50;;;;;;;3.08;1.30;;;;;;;15.50;46.52;101840.69;10099161;29;20530;-78
2022/11/11 12:20:18;;;;;;;4.82;1.38;;;;;;;15.46;47.59;101841.91;10123487;29;20056;-78
2022/11/11 12:25:53;;;;;;;4.20;1.02;;;;;;;16.20;45.70;101841.41;10113586;29;20422;-78
2022/11/11 12:31:28;;;;;;;3.28;0.88;;;;;;;16.76;45.24;101844.84;10125346;29;20072;-79
2022/11/11 12:36:58;;;;;;;1.13;0.95;;;;;;;16.74;45.97;101822.41;10119924;29;20044;-78
2022/11/11 12:42:33;;;;;;;3.17;0.77;;;;;;;16.46;45.37;101823.88;10121913;29;20515;-78
2022/11/11 12:48:05;;;;;;;1.65;1.00;;;;;;;16.75;45.05;101818.69;10111987;29;20089;-78
2022/11/11 12:53:35;;;;;;;1.53;0.80;;;;;;;16.66;44.05;101824.06;10110569;29;20044;-78
2022/11/11 12:59:04;;;;;;;3.95;0.82;;;;;;;17.01;44.44;101831.91;10115667;29;20052;-78
2022/11/11 13:04:41;;;;;;;3.05;0.75;;;;;;;16.35;44.74;101826.63;10113140;29;20052;-78
2022/11/11 13:10:13;;;;;;;3.13;0.60;;;;;;;16.54;43.69;101829.53;10117033;29;20044;-79
2022/11/11 13:15:34;;;;;;;1.05;0.55;;;;;;;16.53;44.65;101816.06;10116208;29;20044;-78
2022/11/11 13:20:59;;;;;;;1.63;0.60;;;;;;;16.56;44.29;101818.53;10118112;29;20425;-78
2022/11/11 13:26:29;;;;;;;3.90;0.80;;;;;;;17.04;43.55;101808.06;10123399;29;20197;-79
2022/11/11 13:31:53;;;;;;;2.63;0.52;;;;;;;16.97;42.75;101820.44;10118403;29;20048;-78
2022/11/11 13:37:26;;;;;;;2.40;0.60;;;;;;;17.33;42.12;101823.69;10116856;29;20714;-78
2022/11/11 13:42:52;;;;;;;3.25;0.50;;;;;;;16.31;42.97;101828.69;10112655;29;20123;-78
2022/11/11 13:48:21;;;;;;;1.88;0.50;;;;;;;16.36;42.24;101837.31;10122345;29;20075;-78
2022/11/11 13:53:47;;;;;;;1.60;0.80;;;;;;;16.75;41.72;101840.41;10127276;29;20439;-80
2022/11/11 13:59:20;;;;;;;2.92;0.77;;;;;;;17.02;42.31;101847.19;10153019;29;20502;-80
2022/11/11 14:05:21;;;;;;;1.25;0.57;;;;;;;16.59;42.55;101849.00;10180353;29;20044;-77
2022/11/11 14:11:00;;;;;;;3.20;0.98;;;;;;;16.27;43.30;101861.63;10184087;29;20470;-80
2022/11/11 14:16:54;;;;;;;1.55;0.45;;;;;;;15.63;44.74;101857.69;10189057;29;20044;-81
2022/11/11 14:22:30;;;;;;;1.40;0.57;;;;;;;15.46;44.83;101859.00;10168659;29;20048;-81
2022/11/11 14:27:53;;;;;;;1.70;0.75;;;;;;;15.72;44.81;101864.22;10177733;29;20040;-78
2022/11/11 14:33:23;;;;;;;1.10;0.65;;;;;;;15.82;44.61;101854.34;10200226;29;20437;-79
2022/11/11 14:38:51;;;;;;;1.02;0.77;;;;;;;15.99;44.02;101868.38;10195551;29;20040;-79
2022/11/11 14:44:43;;;;;;;3.08;1.10;;;;;;;15.65;44.41;101852.13;10175195;29;20052;-82
2022/11/11 14:50:39;;;;;;;2.40;0.60;;;;;;;15.80;44.30;101842.81;10175162;29;20052;-80
2022/11/11 14:56:00;;;;;;;2.88;0.70;;;;;;;15.55;44.58;101854.72;10185374;29;20052;-80
2022/11/11 15:01:25;;;;;;;2.78;0.50;;;;;;;15.69;44.78;101857.19;10184802;29;20052;-79
2022/11/11 15:06:53;;;;;;;1.40;0.73;;;;;;;15.29;45.46;101850.47;10180981;29;20041;-80
2022/11/11 15:12:26;;;;;;;3.42;0.85;;;;;;;15.26;45.87;101860.53;10187050;29;20048;-81
2022/11/11 15:18:02;;;;;;;2.67;0.60;;;;;;;14.47;47.63;101861.19;10178082;29;20040;-78
2022/11/11 15:23:33;;;;;;;3.15;0.70;;;;;;;14.00;48.88;101860.09;10176890;29;20039;-78
2022/11/11 15:29:11;;;;;;;2.78;0.95;;;;;;;13.84;49.62;101861.19;10169451;29;20087;-79
2022/11/11 15:34:40;;;;;;;1.70;0.90;;;;;;;13.53;50.32;101870.63;10180291;29;20040;-80
2022/11/11 15:40:04;;;;;;;2.70;0.95;;;;;;;13.39;50.40;101871.59;10186343;29;20049;-77
2022/11/11 15:45:33;;;;;;;2.45;1.00;;;;;;;13.34;50.29;101870.16;10164639;29;20052;-80
2022/11/11 15:50:56;;;;;;;3.78;0.93;;;;;;;13.17;50.60;101868.63;10163261;29;20045;-80
2022/11/11 15:56:29;;;;;;;1.70;0.90;;;;;;;13.10;50.35;101872.69;10175263;29;20051;-78
2022/11/11 16:01:51;;;;;;;3.67;0.93;;;;;;;13.04;50.29;101872.13;10176253;29;20045;-77
2022/11/11 16:07:21;;;;;;;1.67;0.77;;;;;;;12.97;50.21;101873.53;10162349;29;20436;-79
2022/11/11 16:12:48;;;;;;;5.68;1.00;;;;;;;12.77;50.43;101869.47;10163735;29;20048;-78
2022/11/11 16:18:15;;;;;;;2.33;1.10;;;;;;;12.77;50.16;101872.16;10160181;29;20076;-79
2022/11/11 16:23:39;;;;;;;4.47;0.90;;;;;;;12.70;50.24;101869.97;10194251;29;20072;-81
2022/11/11 16:29:01;;;;;;;3.28;1.20;;;;;;;12.62;50.33;101870.50;10192316;29;20044;-81
2022/11/11 16:34:32;;;;;;;3.03;1.20;;;;;;;12.58;50.16;101872.50;10193103;29;20040;-81
2022/11/11 16:39:55;;;;;;;2.28;1.30;;;;;;;12.55;50.02;101871.88;10197828;29;20103;-78
2022/11/11 16:45:20;;;;;;;1.55;1.10;;;;;;;12.50;50.07;101880.25;10205478;29;20048;-78
2022/11/11 16:50:56;;;;;;;3.17;1.40;;;;;;;12.43;50.11;101878.94;10203924;29;20040;-81
2022/11/11 16:56:24;;;;;;;3.80;1.30;;;;;;;12.48;49.64;101884.88;10187452;29;20040;-81
2022/11/11 17:01:47;;;;;;;3.67;1.30;;;;;;;12.42;49.85;101879.00;10169475;29;20053;-80
2022/11/11 17:07:08;;;;;;;3.50;1.58;;;;;;;12.33;49.83;101881.34;10165678;29;20040;-80
2022/11/11 17:12:31;;;;;;;3.83;1.65;;;;;;;12.30;50.00;101878.00;10163625;29;20405;-79
2022/11/11 17:17:53;;;;;;;3.90;1.83;;;;;;;12.27;50.00;101878.16;10177366;29;20044;-79
2022/11/11 17:23:14;;;;;;;7.38;2.42;;;;;;;12.06;50.64;101889.34;10177019;29;20060;-79
2022/11/11 17:28:37;;;;;;;4.05;2.10;;;;;;;11.61;52.15;101891.25;10163400;29;20135;-80
2022/11/11 17:33:58;;;;;;;10.77;3.78;;;;;;;11.33;52.97;101891.22;10170622;29;20414;-81
2022/11/11 17:39:20;;;;;;;5.28;2.92;;;;;;;11.16;53.60;101893.09;10175854;29;20048;-79
2022/11/11 17:44:42;;;;;;;5.68;3.03;;;;;;;11.04;53.96;101894.66;10178995;29;20044;-80
2022/11/11 17:50:05;;;;;;;10.57;3.22;;;;;;;10.92;54.33;101890.00;10173503;29;20053;-80
2022/11/11 17:55:26;;;;;;;6.80;3.80;;;;;;;10.92;54.04;101903.47;10174764;29;20530;-80
2022/11/11 18:00:49;;;;;;;5.93;2.28;;;;;;;11.25;52.56;101897.94;10183308;29;20048;-80
2022/11/11 18:06:11;;;;;;;3.80;1.95;;;;;;;11.66;51.20;101907.16;10172278;29;20127;-80
2022/11/11 18:11:35;;;;;;;4.72;1.65;;;;;;;11.79;50.47;101899.16;10177566;29;20506;-80
2022/11/11 18:16:57;;;;;;;2.58;1.45;;;;;;;11.92;50.06;101900.13;10185976;29;20127;-80
2022/11/11 18:22:18;;;;;;;3.42;1.80;;;;;;;12.00;49.59;101894.25;10203341;29;20107;-78
2022/11/11 18:27:40;;;;;;;3.42;1.40;;;;;;;12.03;49.10;101905.69;10188759;29;20123;-79
2022/11/11 18:33:03;;;;;;;2.03;1.45;;;;;;;11.99;49.21;101908.69;10167237;29;20048;-80
2022/11/11 18:38:25;;;;;;;2.40;1.45;;;;;;;11.84;49.68;101910.50;10165315;29;20056;-79
2022/11/11 18:43:49;;;;;;;3.78;1.25;;;;;;;11.73;50.07;101914.72;10183682;28;20044;-75
2022/11/11 18:49:13;;;;;;;4.18;1.60;;;;;;;11.77;50.63;101904.66;10207968;29;20048;-79
2022/11/11 18:54:35;;;;;;;3.80;1.60;;;;;;;11.54;51.80;101911.44;10166410;29;20052;-78
2022/11/11 18:59:56;;;;;;;5.28;2.20;;;;;;;11.41;52.59;101907.75;10154197;29;20131;-75
2022/11/11 19:05:18;;;;;;;3.90;2.03;;;;;;;11.36;53.09;101917.94;10159134;29;20052;-77
2022/11/11 19:10:39;;;;;;;4.85;1.88;;;;;;;11.31;53.41;101922.72;10168611;29;20413;-77
2022/11/11 19:16:06;;;;;;;3.47;2.25;;;;;;;11.36;53.34;101928.72;10175409;29;20052;-78
2022/11/11 19:21:31;;;;;;;5.20;2.65;;;;;;;11.43;53.33;101928.22;10155272;29;20064;-77
2022/11/11 19:26:52;;;;;;;4.95;2.20;;;;;;;11.20;54.30;101928.75;10168055;29;20052;-76
2022/11/11 19:32:14;;;;;;;6.75;2.60;;;;;;;11.09;54.77;101934.72;10146757;29;20053;-79
2022/11/11 19:37:37;;;;;;;3.57;2.30;;;;;;;10.97;55.11;101940.81;10158161;29;20040;-78
2022/11/11 19:42:58;;;;;;;4.45;2.97;;;;;;;10.82;55.55;101948.81;10159154;29;20052;-78
2022/11/11 19:48:19;;;;;;;5.55;2.80;;;;;;;10.76;55.46;101938.41;10137684;29;20044;-78
2022/11/11 19:53:42;;;;;;;9.55;2.80;;;;;;;10.75;55.31;101936.69;10148220;29;20099;-79
2022/11/11 19:59:04;;;;;;;4.07;2.85;;;;;;;10.70;55.00;101940.59;10167411;29;20060;-78
2022/11/11 20:04:25;;;;;;;5.53;3.03;;;;;;;10.71;54.79;101939.63;10167183;29;20052;-78
2022/11/11 20:09:48;;;;;;;3.85;2.67;;;;;;;10.66;54.75;101939.88;10167146;29;20478;-78
2022/11/11 20:15:09;;;;;;;5.05;2.88;;;;;;;10.57;54.66;101945.78;10166958;29;20450;-78
2022/11/11 20:20:31;;;;;;;5.60;3.30;;;;;;;10.53;54.55;101944.22;10161989;29;20056;-78
2022/11/11 20:25:54;;;;;;;5.03;3.45;;;;;;;10.41;54.77;101955.66;10160734;29;20048;-78
2022/11/11 20:31:17;;;;;;;5.65;4.22;;;;;;;10.33;54.83;101962.31;10171411;29;20052;-78
2022/11/11 20:36:39;;;;;;;9.70;6.28;;;;;;;10.21;54.90;101954.09;10186446;29;20067;-78
2022/11/11 20:42:01;;;;;;;7.03;5.57;;;;;;;10.08;54.85;101949.38;10174110;29;20075;-78
2022/11/11 20:47:23;;;;;;;7.90;5.90;;;;;;;9.96;54.96;101954.56;10169105;29;20063;-78
2022/11/11 20:52:44;;;;;;;12.40;6.00;;;;;;;9.82;55.49;101964.16;10160669;29;20456;-79
2022/11/11 20:58:07;;;;;;;7.97;4.55;;;;;;;9.62;56.09;101962.50;10168313;29;20056;-79
2022/11/11 21:03:30;;;;;;;6.72;4.70;;;;;;;9.43;56.96;101962.59;10172565;29;20044;-79
2022/11/11 21:08:52;;;;;;;8.45;5.22;;;;;;;9.33;57.27;101965.84;10171793;29;20517;-78
2022/11/11 21:14:14;;;;;;;9.02;5.53;;;;;;;9.13;57.71;101958.78;10164807;29;20480;-78
2022/11/11 21:19:36;;;;;;;;;;;;;;;8.98;57.92;101965.78;10165495;29;20084;-78
2022/11/11 21:24:58;;;;;;;10.43;6.18;;;;;;;8.90;57.90;101966.16;10175184;29;19927;-78
2022/11/11 21:30:21;;;;;;;9.80;6.07;;;;;;;8.84;58.24;101966.47;10178668;29;20048;-78
2022/11/11 21:35:42;;;;;;;11.30;6.15;;;;;;;8.74;58.61;101966.03;10177021;29;20036;-78
2022/11/11 21:41:05;;;;;;;15.05;7.03;;;;;;;8.53;59.40;101964.38;10168958;29;20056;-78
2022/11/11 21:46:28;;;;;;;;;;;;;;;8.28;60.66;101961.94;10160498;29;20083;-79
2022/11/11 21:51:50;;;;;;;15.98;7.22;;;;;;;8.13;62.02;101979.59;10158596;29;20353;-78
2022/11/11 21:57:13;;;;;;;12.68;8.23;;;;;;;7.98;62.76;101975.81;10158479;29;20052;-78
2022/11/11 22:02:36;;;;;;;13.75;6.93;;;;;;;7.87;63.36;101975.38;10165412;29;20108;-78
2022/11/11 22:07:57;;;;;;;13.60;7.43;;;;;;;7.72;64.14;101969.78;10166197;29;20047;-78
2022/11/11 22:13:19;;;;;;;10.95;7.63;;;;;;;7.59;64.94;101967.72;10169612;29;20068;-79
2022/11/11 22:18:42;;;;;;;11.93;6.80;;;;;;;7.53;65.86;101976.88;10194511;29;20047;-79
2022/11/11 22:24:09;;;;;;;12.88;7.68;;;;;;;7.42;66.77;101981.81;10192135;29;20057;-79
2022/11/11 22:29:30;;;;;;;16.02;8.88;;;;;;;7.30;67.42;101983.22;10192146;29;20111;-78
2022/11/11 22:34:55;;;;;;;13.85;8.10;;;;;;;7.39;67.33;101987.31;10172916;29;20498;-79
2022/11/11 22:40:17;;;;;;;11.48;7.38;;;;;;;7.33;67.59;101985.75;10168647;29;20056;-78
2022/11/11 22:45:38;;;;;;;11.95;6.00;;;;;;;7.25;67.77;101994.09;10182947;29;20068;-78
2022/11/11 22:51:10;;;;;;;10.77;6.70;;;;;;;7.22;68.04;101986.19;10217859;29;20032;-78
2022/11/11 22:56:33;;;;;;;12.95;6.38;;;;;;;7.22;68.30;101990.69;10179229;29;20049;-78
2022/11/11 23:01:55;;;;;;;19.90;11.52;;;;;;;7.17;68.85;102009.56;10181743;29;20052;-79
2022/11/11 23:07:18;;;;;;;13.48;7.82;;;;;;;7.09;69.48;102011.69;10154998;29;20324;-79
2022/11/11 23:12:39;;;;;;;15.07;10.30;;;;;;;7.05;69.85;102016.28;10156463;29;20053;-78
2022/11/11 23:18:00;;;;;;;15.45;8.63;;;;;;;7.04;69.97;102017.22;10170564;29;20717;-79
2022/11/11 23:23:23;;;;;;;10.50;6.72;;;;;;;7.03;70.03;102017.28;10161492;29;20275;-78
2022/11/11 23:28:45;;;;;;;15.38;8.18;;;;;;;6.98;70.21;102028.16;10153756;29;20165;-79
2022/11/11 23:34:07;;;;;;;10.95;8.00;;;;;;;6.91;70.77;102020.44;10160726;29;20526;-79
2022/11/11 23:39:30;;;;;;;15.07;9.07;;;;;;;6.79;71.10;102019.94;10159543;29;20101;-78
2022/11/11 23:44:52;;;;;;;11.25;8.25;;;;;;;6.77;71.44;102013.78;10159216;29;20088;-79
2022/11/11 23:50:13;;;;;;;11.57;6.30;;;;;;;6.78;70.79;102010.22;10159040;29;20064;-79
2022/11/11 23:55:36;;;;;;;10.65;6.10;;;;;;;6.69;70.70;102005.25;10162725;29;20059;-79
